Gobernador Crespo, Argentina
Current Conditions -  °F | °C
As of 8:00 PM on Thursday 18 Dec 2014 (Local Time) from SUSO Reporting Station
Clear Clear  
Wind Chill: 82°   Ceiling: Unl
Heat Index: 83°   Visibility: 6mi
Dew Point: 61°   Wind: 0mph
Humidity: 48%   Direction: NA
Pressure: 29.77"   Gusts: NA
Location:  30.38°S, 60.42°W
Report Text: SUSO 182300Z 00000KT CAVOK 28/16 Q1008
Loading
Personal Weather Stations






























Interactive Weather Map New forecast layout! Learn more

10-Day Weather Forecast

Advertisements
Track Severe Weather on mobile